Time;durP1;ratioP1;P1;durP2;ratioP2;P2;SDS_P1;SDS_P2;PMS_P1;PMS_P2;Temp;Humidity;BMP_temperature;BMP_pressure;BME280_temperature;BME280_humidity;BME280_pressure;Samples;Min_cycle;Max_cycle;Signal;HPM_P1;HPM_P2
2023/04/03 00:00:29;;;;;;;2.08;0.65;;;7.70;83.70;;;;;;5076925;28;20032;-76
2023/04/03 00:02:55;;;;;;;1.95;0.60;;;7.50;82.70;;;;;;5095102;28;20032;-76
2023/04/03 00:05:21;;;;;;;1.83;0.55;;;7.40;83.70;;;;;;5095074;28;20376;-76
2023/04/03 00:07:46;;;;;;;2.25;0.85;;;7.50;84.90;;;;;;5076575;28;20518;-76
2023/04/03 00:10:12;;;;;;;5.90;0.82;;;7.60;83.50;;;;;;5059954;28;20383;-76
2023/04/03 00:12:37;;;;;;;4.18;0.70;;;7.50;83.70;;;;;;5076793;28;20028;-76
2023/04/03 00:15:04;;;;;;;2.60;0.70;;;7.60;84.40;;;;;;5076724;28;20094;-76
2023/04/03 00:17:29;;;;;;;4.32;0.65;;;7.60;83.30;;;;;;5076714;28;20028;-76
2023/04/03 00:19:55;;;;;;;2.50;0.75;;;7.50;83.80;;;;;;5076541;28;20361;-76
2023/04/03 00:22:20;;;;;;;2.95;0.60;;;7.50;83.60;;;;;;5059919;28;20040;-76
2023/04/03 00:24:46;;;;;;;3.47;0.80;;;7.40;84.00;;;;;;5094616;28;20033;-76
2023/04/03 00:27:12;;;;;;;4.05;0.93;;;7.60;83.90;;;;;;5094973;28;20024;-76
2023/04/03 00:29:37;;;;;;;2.83;0.57;;;7.30;83.70;;;;;;5094548;28;20061;-76
2023/04/03 00:32:03;;;;;;;3.40;0.68;;;7.40;84.50;;;;;;5094533;28;20089;-76
2023/04/03 00:34:29;;;;;;;5.18;1.00;;;7.30;84.30;;;;;;5076852;28;20028;-76
2023/04/03 00:36:54;;;;;;;2.60;0.68;;;7.20;84.90;;;;;;5059496;28;20086;-76
2023/04/03 00:39:20;;;;;;;4.28;0.80;;;7.20;85.10;;;;;;5059451;28;20048;-76
2023/04/03 00:41:46;;;;;;;2.15;0.52;;;7.20;85.00;;;;;;5094340;28;20123;-76
2023/04/03 00:44:34;;;;;;;3.72;1.00;;;7.20;85.10;;;;;;5076354;28;20349;-76
2023/04/03 00:47:00;;;;;;;4.15;0.95;;;7.10;85.30;;;;;;5076264;28;20028;-76
2023/04/03 00:49:27;;;;;;;4.82;0.65;;;7.10;85.60;;;;;;5094772;28;20024;-76
2023/04/03 00:51:53;;;;;;;4.00;0.50;;;7.30;86.30;;;;;;5094791;28;20063;-76
2023/04/03 00:54:19;;;;;;;4.57;0.73;;;7.40;85.70;;;;;;5076546;28;20413;-76
2023/04/03 00:56:45;;;;;;;3.58;0.65;;;7.30;85.60;;;;;;5075815;28;20127;-76
2023/04/03 00:59:21;;;;;;;1.70;0.70;;;7.30;85.80;;;;;;5076829;28;20038;-76
2023/04/03 01:01:47;;;;;;;5.97;1.60;;;7.40;85.60;;;;;;5094022;28;20016;-76
2023/04/03 01:04:33;;;;;;;4.78;0.88;;;7.40;85.50;;;;;;5094038;28;20024;-76
2023/04/03 01:07:04;;;;;;;3.78;0.80;;;7.40;85.90;;;;;;5075746;28;20030;-76
2023/04/03 01:09:31;;;;;;;4.15;1.13;;;7.50;86.10;;;;;;5094254;28;20016;-76
2023/04/03 01:12:23;;;;;;;1.95;0.45;;;7.50;86.00;;;;;;5094144;28;20020;-76
2023/04/03 01:14:57;;;;;;;2.00;0.55;;;7.60;86.00;;;;;;5075357;28;20487;-76
2023/04/03 01:17:30;;;;;;;3.30;0.85;;;7.70;86.00;;;;;;5093798;28;20051;-76
2023/04/03 01:20:29;;;;;;;4.65;0.70;;;7.50;85.80;;;;;;5093763;28;20030;-76
2023/04/03 01:23:12;;;;;;;3.75;0.60;;;7.20;86.90;;;;;;5094308;28;20522;-76
2023/04/03 01:25:45;;;;;;;;;;;7.10;87.90;;;;;;5076516;28;20034;-76
2023/04/03 01:28:15;;;;;;;3.67;0.60;;;7.10;88.10;;;;;;5093629;28;20003;-80
2023/04/03 01:30:50;;;;;;;4.68;0.90;;;7.10;88.20;;;;;;5093568;28;20266;-79
2023/04/03 01:33:15;;;;;;;2.55;0.50;;;7.20;88.20;;;;;;5093811;28;20024;-80
2023/04/03 01:35:41;;;;;;;3.47;0.70;;;7.10;88.50;;;;;;5042050;28;20039;-81
2023/04/03 01:38:07;;;;;;;4.97;0.70;;;7.00;89.00;;;;;;5093271;28;20103;-80
2023/04/03 01:40:33;;;;;;;3.95;0.80;;;7.10;89.40;;;;;;5075503;28;20111;-80
2023/04/03 01:42:59;;;;;;;3.50;0.32;;;7.20;89.30;;;;;;5093402;28;20046;-81
2023/04/03 01:45:24;;;;;;;5.82;0.90;;;7.30;89.10;;;;;;5093650;28;20362;-80
2023/04/03 01:47:50;;;;;;;3.33;0.93;;;7.20;89.80;;;;;;5093270;28;20028;-82
2023/04/03 01:50:16;;;;;;;5.90;0.73;;;7.10;89.90;;;;;;5075508;28;20040;-81
2023/04/03 01:52:42;;;;;;;8.80;0.98;;;7.10;90.10;;;;;;5042000;28;20036;-80
2023/04/03 01:55:08;;;;;;;3.55;0.65;;;7.10;90.40;;;;;;5058389;28;20040;-80
2023/04/03 01:57:33;;;;;;;4.05;0.90;;;7.10;90.10;;;;;;5075650;28;20491;-81
2023/04/03 01:59:59;;;;;;;2.72;0.73;;;7.20;90.40;;;;;;5075021;28;20055;-81
2023/04/03 02:02:25;;;;;;;3.85;0.75;;;7.30;90.20;;;;;;5041968;28;20056;-79
2023/04/03 02:04:51;;;;;;;3.15;0.70;;;7.20;90.20;;;;;;5093544;28;20036;-81
2023/04/03 02:07:16;;;;;;;1.95;0.50;;;7.20;90.30;;;;;;5074878;28;20031;-81
2023/04/03 02:09:42;;;;;;;4.65;0.60;;;7.30;90.40;;;;;;5041859;28;20080;-82
2023/04/03 02:12:07;;;;;;;3.72;0.82;;;7.30;90.40;;;;;;5075171;28;20107;-81
2023/04/03 02:14:33;;;;;;;3.40;0.70;;;7.30;90.40;;;;;;5058284;28;20383;-80
2023/04/03 02:17:04;;;;;;;3.08;0.65;;;7.30;90.70;;;;;;5093121;28;20488;-82
2023/04/03 02:19:30;;;;;;;6.05;1.02;;;7.30;90.50;;;;;;5074842;28;20115;-81
2023/04/03 02:21:56;;;;;;;4.93;0.80;;;7.30;90.60;;;;;;5074933;28;20050;-81
2023/04/03 02:24:22;;;;;;;6.40;0.93;;;7.30;90.80;;;;;;5058887;28;20413;-81
2023/04/03 02:26:47;;;;;;;3.40;0.50;;;7.30;90.60;;;;;;5093325;28;20441;-80
2023/04/03 02:29:13;;;;;;;3.85;0.70;;;7.30;90.60;;;;;;5074999;28;20035;-81
2023/04/03 02:31:39;;;;;;;4.55;0.65;;;7.10;90.80;;;;;;5092673;28;20103;-82
2023/04/03 02:34:05;;;;;;;4.65;0.73;;;7.00;91.20;;;;;;5076824;28;20028;-81
2023/04/03 02:36:31;;;;;;;3.38;0.80;;;7.00;91.20;;;;;;5078811;28;20032;-80
2023/04/03 02:38:56;;;;;;;3.35;0.80;;;7.10;91.10;;;;;;5061127;28;20139;-81
2023/04/03 02:41:22;;;;;;;4.18;0.65;;;7.20;91.40;;;;;;5061658;28;20085;-81
2023/04/03 02:43:48;;;;;;;7.07;0.70;;;7.20;91.10;;;;;;5096383;28;20137;-81
2023/04/03 02:46:15;;;;;;;4.43;0.57;;;7.10;91.10;;;;;;5077931;28;20043;-81
2023/04/03 02:48:40;;;;;;;5.18;0.90;;;7.10;91.30;;;;;;5077817;28;20045;-81
2023/04/03 02:51:06;;;;;;;3.92;0.63;;;7.10;91.30;;;;;;5096007;28;20025;-81
2023/04/03 02:53:32;;;;;;;5.07;0.75;;;7.00;91.90;;;;;;5095944;28;20032;-81
2023/04/03 02:55:57;;;;;;;5.72;1.30;;;7.00;91.70;;;;;;5078503;28;20120;-81
2023/04/03 02:58:23;;;;;;;8.80;1.15;;;7.00;91.60;;;;;;5078035;28;20028;-82
2023/04/03 03:00:49;;;;;;;4.90;0.90;;;6.80;91.90;;;;;;5078061;28;20056;-81
2023/04/03 03:03:14;;;;;;;4.40;0.68;;;6.80;92.30;;;;;;5061215;28;20306;-81
2023/04/03 03:05:40;;;;;;;5.55;0.98;;;6.80;92.40;;;;;;5078301;28;20036;-81
2023/04/03 03:08:06;;;;;;;5.10;0.68;;;6.80;92.40;;;;;;5078024;28;20380;-81
2023/04/03 03:10:31;;;;;;;6.32;0.70;;;6.90;92.70;;;;;;5077971;28;20093;-81
2023/04/03 03:12:57;;;;;;;6.43;0.90;;;6.90;92.40;;;;;;5077730;28;20028;-81
2023/04/03 03:15:22;;;;;;;3.50;0.63;;;6.80;92.60;;;;;;5060609;28;20040;-81
2023/04/03 03:17:48;;;;;;;6.65;0.70;;;6.70;92.70;;;;;;5077713;28;20107;-81
2023/04/03 03:20:15;;;;;;;3.83;0.90;;;6.60;93.30;;;;;;5095741;28;20078;-81
2023/04/03 03:22:40;;;;;;;3.17;0.63;;;6.50;93.10;;;;;;5078140;28;20115;-81
2023/04/03 03:25:06;;;;;;;3.17;0.77;;;6.50;93.50;;;;;;5077658;28;20117;-81
2023/04/03 03:27:32;;;;;;;7.13;1.45;;;6.50;93.30;;;;;;5077318;28;20028;-81
2023/04/03 03:29:57;;;;;;;4.78;1.00;;;6.60;93.20;;;;;;5061000;28;20028;-81
2023/04/03 03:32:23;;;;;;;4.80;1.00;;;6.50;93.40;;;;;;5077492;28;20119;-82
2023/04/03 03:34:49;;;;;;;8.02;1.10;;;6.40;93.60;;;;;;5077441;28;20024;-81
2023/04/03 03:37:15;;;;;;;3.53;0.70;;;6.40;93.70;;;;;;5077624;28;20048;-80
2023/04/03 03:39:40;;;;;;;3.30;0.70;;;6.30;93.80;;;;;;5077521;28;20090;-80
2023/04/03 03:42:06;;;;;;;7.30;0.93;;;6.40;93.90;;;;;;5077199;28;20032;-81
2023/04/03 03:44:32;;;;;;;4.65;1.20;;;6.50;93.80;;;;;;5094471;28;20026;-81
2023/04/03 03:46:57;;;;;;;5.85;0.90;;;6.40;93.50;;;;;;5095125;28;20119;-80
2023/04/03 03:49:23;;;;;;;4.70;1.00;;;6.20;93.80;;;;;;5076821;28;20456;-81
2023/04/03 03:51:49;;;;;;;6.20;0.90;;;6.20;94.00;;;;;;5076929;28;20556;-80
2023/04/03 03:54:15;;;;;;;3.42;0.50;;;6.20;94.00;;;;;;5061297;28;20028;-81
2023/04/03 03:56:41;;;;;;;4.07;1.02;;;6.30;94.10;;;;;;5095048;28;20024;-79
2023/04/03 03:59:06;;;;;;;3.40;0.73;;;6.40;93.80;;;;;;5077401;28;20028;-82
2023/04/03 04:01:32;;;;;;;6.18;0.85;;;6.50;93.60;;;;;;5076794;28;20103;-81
2023/04/03 04:03:58;;;;;;;4.65;1.00;;;6.60;93.80;;;;;;5077701;28;20440;-81
2023/04/03 04:06:23;;;;;;;3.33;1.10;;;6.60;93.20;;;;;;5077758;28;20071;-81
2023/04/03 04:08:49;;;;;;;5.05;0.77;;;6.40;93.20;;;;;;5095356;28;20032;-81
2023/04/03 04:11:15;;;;;;;7.25;1.00;;;6.40;93.70;;;;;;5095142;28;20087;-81
2023/04/03 04:13:41;;;;;;;6.50;1.00;;;6.50;93.50;;;;;;5077842;28;20440;-81
2023/04/03 04:16:07;;;;;;;3.88;0.90;;;6.40;93.00;;;;;;5076357;28;20031;-81
2023/04/03 04:18:33;;;;;;;4.13;0.80;;;6.20;93.20;;;;;;5077215;28;20059;-81
2023/04/03 04:20:59;;;;;;;3.80;0.80;;;6.20;93.70;;;;;;5076320;28;20115;-81
2023/04/03 04:23:25;;;;;;;4.47;1.05;;;6.20;93.80;;;;;;5076507;28;20104;-79
2023/04/03 04:25:51;;;;;;;3.63;0.73;;;6.10;93.50;;;;;;5094522;28;20066;-81
2023/04/03 04:28:17;;;;;;;6.65;0.77;;;6.20;93.80;;;;;;5094246;28;20108;-81
2023/04/03 04:30:44;;;;;;;8.25;1.30;;;6.10;93.70;;;;;;5076093;28;20028;-82
2023/04/03 04:33:10;;;;;;;3.08;0.60;;;6.00;93.90;;;;;;5076258;28;20035;-81
2023/04/03 04:35:35;;;;;;;7.25;1.02;;;5.90;94.20;;;;;;5059677;28;20476;-81
2023/04/03 04:38:02;;;;;;;4.93;1.40;;;5.90;94.70;;;;;;5059421;28;20048;-81
2023/04/03 04:40:28;;;;;;;5.43;1.15;;;5.90;94.40;;;;;;5076062;28;20028;-80
2023/04/03 04:43:00;;;;;;;3.42;0.77;;;5.90;94.50;;;;;;5094158;28;20043;-81
2023/04/03 04:45:26;;;;;;;5.15;0.98;;;5.90;94.80;;;;;;5094315;28;20028;-80
2023/04/03 04:47:54;;;;;;;6.80;1.25;;;5.90;94.50;;;;;;5059173;28;20051;-80
2023/04/03 04:50:20;;;;;;;7.15;1.02;;;5.90;94.70;;;;;;5060210;28;20077;-83
2023/04/03 04:52:46;;;;;;;4.22;1.05;;;5.90;94.60;;;;;;5060097;28;20032;-80
2023/04/03 04:55:12;;;;;;;6.93;1.27;;;5.70;94.50;;;;;;5075923;28;20381;-81
2023/04/03 04:57:38;;;;;;;5.63;1.00;;;5.60;95.10;;;;;;5059030;28;20032;-80
2023/04/03 05:00:04;;;;;;;6.45;0.75;;;5.60;95.20;;;;;;5076786;28;20071;-82
2023/04/03 05:02:30;;;;;;;6.00;0.95;;;5.70;94.90;;;;;;5094006;28;20119;-82
2023/04/03 05:04:56;;;;;;;4.90;1.15;;;5.90;95.00;;;;;;5059478;28;20055;-81
2023/04/03 05:07:22;;;;;;;5.90;1.40;;;6.00;94.80;;;;;;5093854;28;20036;-82
2023/04/03 05:09:48;;;;;;;4.90;0.95;;;6.00;94.30;;;;;;5075795;28;20031;-82
2023/04/03 05:12:14;;;;;;;4.90;0.85;;;6.00;94.10;;;;;;5058827;28;20131;-83
2023/04/03 05:14:40;;;;;;;4.35;0.90;;;6.10;94.00;;;;;;5075434;28;20031;-82
2023/04/03 05:17:05;;;;;;;4.88;1.20;;;6.10;94.00;;;;;;5075742;28;20391;-81
2023/04/03 05:19:31;;;;;;;7.63;1.02;;;6.20;93.70;;;;;;5094103;28;20032;-81
2023/04/03 05:21:56;;;;;;;5.40;1.02;;;6.20;93.50;;;;;;5075576;28;20028;-82
2023/04/03 05:24:22;;;;;;;6.57;0.88;;;6.10;93.40;;;;;;5075877;28;20052;-81
2023/04/03 05:26:48;;;;;;;5.22;1.27;;;6.00;93.00;;;;;;5075683;28;20067;-81
2023/04/03 05:29:13;;;;;;;3.70;0.68;;;5.90;93.10;;;;;;5075542;28;20079;-81
2023/04/03 05:31:39;;;;;;;7.65;1.02;;;5.90;93.20;;;;;;5075814;28;20489;-80
2023/04/03 05:34:05;;;;;;;8.95;1.00;;;5.90;93.30;;;;;;5059191;28;20051;-79
2023/04/03 05:36:31;;;;;;;8.85;0.80;;;5.90;92.90;;;;;;5093859;28;20127;-80
2023/04/03 05:38:57;;;;;;;4.43;0.60;;;5.70;93.20;;;;;;5042038;28;20088;-81
2023/04/03 05:41:23;;;;;;;4.03;0.80;;;5.60;93.40;;;;;;5093580;28;20028;-80
2023/04/03 05:43:49;;;;;;;3.58;0.80;;;5.60;93.60;;;;;;5094146;28;20027;-81
2023/04/03 05:46:17;;;;;;;5.75;0.80;;;5.60;93.50;;;;;;5075412;28;20040;-80
2023/04/03 05:48:43;;;;;;;7.88;1.38;;;5.70;93.60;;;;;;5093684;28;20020;-81
2023/04/03 05:51:23;;;;;;;2.88;0.75;;;5.80;93.30;;;;;;5093939;28;20032;-81
2023/04/03 05:53:54;;;;;;;11.73;1.42;;;5.60;93.20;;;;;;5076993;28;20028;-79
2023/04/03 05:56:20;;;;;;;5.10;0.93;;;5.50;93.30;;;;;;5093501;28;20035;-80
2023/04/03 05:58:46;;;;;;;4.32;0.93;;;5.40;93.90;;;;;;5058348;28;20123;-78
2023/04/03 06:01:11;;;;;;;4.90;0.90;;;5.40;94.00;;;;;;5057987;28;20025;-79
2023/04/03 06:03:39;;;;;;;4.85;0.82;;;5.30;93.70;;;;;;5093019;28;20067;-80
2023/04/03 06:06:05;;;;;;;4.30;1.00;;;5.30;93.80;;;;;;5075356;28;20028;-79
2023/04/03 06:08:31;;;;;;;3.38;0.85;;;5.40;94.10;;;;;;5059709;28;20028;-79
2023/04/03 06:10:57;;;;;;;7.13;1.02;;;5.40;94.10;;;;;;5062412;28;20035;-79
2023/04/03 06:13:23;;;;;;;7.13;0.93;;;5.40;94.10;;;;;;5096918;28;20169;-80
2023/04/03 06:15:49;;;;;;;3.95;0.77;;;5.20;94.30;;;;;;5061834;28;20085;-80
2023/04/03 06:18:15;;;;;;;5.05;0.90;;;5.20;94.50;;;;;;5079421;28;20406;-78
2023/04/03 06:20:40;;;;;;;3.90;1.25;;;5.30;94.50;;;;;;5045266;28;20020;-79
2023/04/03 06:23:06;;;;;;;3.60;0.98;;;5.30;94.40;;;;;;5078589;28;20157;-79
2023/04/03 06:25:33;;;;;;;8.27;1.13;;;5.30;94.40;;;;;;5062235;28;20032;-80
2023/04/03 06:27:59;;;;;;;7.35;1.13;;;5.30;94.70;;;;;;5062145;28;20041;-79
2023/04/03 06:30:25;;;;;;;5.80;1.25;;;5.30;94.80;;;;;;5062163;28;20358;-80
2023/04/03 06:32:51;;;;;;;6.57;1.23;;;5.40;94.50;;;;;;5061947;28;20035;-81
2023/04/03 06:35:17;;;;;;;9.00;0.73;;;5.40;94.10;;;;;;5078306;28;20036;-80
2023/04/03 06:37:43;;;;;;;4.47;0.95;;;5.40;94.40;;;;;;5078320;28;20028;-80
2023/04/03 06:40:19;;;;;;;4.70;1.00;;;5.40;94.20;;;;;;5062281;28;20062;-80
2023/04/03 06:42:45;;;;;;;5.43;1.02;;;5.40;94.20;;;;;;5078901;28;20039;-79
2023/04/03 06:45:11;;;;;;;2.72;0.52;;;5.40;94.10;;;;;;5096442;28;20035;-81
2023/04/03 06:47:37;;;;;;;7.05;1.10;;;5.40;94.00;;;;;;5078128;28;20032;-80
2023/04/03 06:50:03;;;;;;;4.80;0.90;;;5.50;94.00;;;;;;5061226;28;20024;-81
2023/04/03 06:52:28;;;;;;;4.28;0.77;;;5.70;93.70;;;;;;5096153;28;20047;-81
2023/04/03 06:54:57;;;;;;;8.75;1.58;;;5.80;93.40;;;;;;5061112;28;20468;-79
2023/04/03 06:57:24;;;;;;;5.10;0.95;;;5.80;92.90;;;;;;5045374;28;20036;-79
2023/04/03 06:59:50;;;;;;;9.43;1.10;;;5.70;93.10;;;;;;5096108;28;20021;-77
2023/04/03 07:02:15;;;;;;;2.83;0.70;;;5.70;93.20;;;;;;5061377;28;20021;-79
2023/04/03 07:04:41;;;;;;;5.65;0.98;;;5.90;93.10;;;;;;5077626;28;20032;-79
2023/04/03 07:07:07;;;;;;;5.70;0.95;;;6.10;92.20;;;;;;5060576;28;20393;-80
2023/04/03 07:09:33;;;;;;;4.40;0.65;;;6.20;92.10;;;;;;5077641;28;20109;-80
2023/04/03 07:11:59;;;;;;;3.65;0.80;;;6.30;92.10;;;;;;5061000;28;20540;-81
2023/04/03 07:14:24;;;;;;;5.38;0.70;;;6.60;92.20;;;;;;5077797;28;20056;-80
2023/04/03 07:16:50;;;;;;;8.02;0.93;;;6.70;91.00;;;;;;5060875;28;20469;-80
2023/04/03 07:19:17;;;;;;;6.30;0.90;;;6.80;90.50;;;;;;5077558;28;20024;-80
2023/04/03 07:21:44;;;;;;;4.55;0.88;;;6.80;90.00;;;;;;5061155;28;20081;-80
2023/04/03 07:24:10;;;;;;;3.03;0.63;;;6.80;88.40;;;;;;5078047;28;20028;-82
2023/04/03 07:26:36;;;;;;;3.95;0.77;;;6.80;87.10;;;;;;5077848;28;20028;-82
2023/04/03 07:29:02;;;;;;;4.78;0.93;;;6.80;85.90;;;;;;5077949;28;20453;-80
2023/04/03 07:31:28;;;;;;;6.22;0.80;;;6.90;85.90;;;;;;5095637;28;20066;-82
2023/04/03 07:33:54;;;;;;;6.40;0.88;;;6.80;86.70;;;;;;5077927;28;20059;-77
2023/04/03 07:36:21;;;;;;;5.20;0.88;;;6.80;87.90;;;;;;5060625;28;20472;-77
2023/04/03 07:38:48;;;;;;;5.32;0.80;;;6.90;87.20;;;;;;5077215;28;20110;-77
2023/04/03 07:41:15;;;;;;;5.63;1.05;;;7.10;86.80;;;;;;5077250;28;20047;-77
2023/04/03 07:43:42;;;;;;;7.95;1.00;;;7.20;86.30;;;;;;5095237;28;20054;-77
2023/04/03 07:46:07;;;;;;;4.53;0.68;;;7.20;84.80;;;;;;5077074;28;20077;-78
2023/04/03 07:48:34;;;;;;;5.18;0.65;;;7.20;83.70;;;;;;5095646;28;20028;-78
2023/04/03 07:51:01;;;;;;;4.25;0.70;;;7.20;83.40;;;;;;5060451;28;20375;-78
2023/04/03 07:53:27;;;;;;;5.50;0.88;;;7.20;82.80;;;;;;5060528;28;20039;-78
2023/04/03 07:55:56;;;;;;;3.88;0.95;;;7.30;82.30;;;;;;5044193;28;20357;-78
2023/04/03 07:58:22;;;;;;;3.70;0.70;;;7.50;83.30;;;;;;5095080;28;20051;-76
2023/04/03 08:00:48;;;;;;;2.97;0.60;;;7.70;80.10;;;;;;5077456;28;20063;-74
2023/04/03 08:03:16;;;;;;;5.65;1.00;;;7.70;81.70;;;;;;5094919;28;20020;-77
2023/04/03 08:05:44;;;;;;;3.30;0.60;;;7.80;79.80;;;;;;5076681;28;20035;-73
2023/04/03 08:08:12;;;;;;;3.75;0.50;;;7.80;77.80;;;;;;5077410;28;20088;-74
2023/04/03 08:10:38;;;;;;;3.08;0.50;;;7.90;77.10;;;;;;5094850;28;20117;-77
2023/04/03 08:13:06;;;;;;;4.50;0.80;;;8.00;77.10;;;;;;5094376;28;20036;-76
2023/04/03 08:15:32;;;;;;;2.72;0.50;;;8.10;75.70;;;;;;5094322;28;20036;-75
2023/04/03 08:17:59;;;;;;;1.48;0.40;;;8.20;75.00;;;;;;5094597;28;20028;-76
2023/04/03 08:20:25;;;;;;;5.90;0.55;;;8.10;73.40;;;;;;5094664;28;20032;-75
2023/04/03 08:22:51;;;;;;;3.15;0.50;;;8.10;72.20;;;;;;5060891;28;20032;-77
2023/04/03 08:25:17;;;;;;;1.75;0.35;;;7.90;72.60;;;;;;5076611;28;20322;-76
2023/04/03 08:27:43;;;;;;;3.60;0.40;;;8.10;72.80;;;;;;5076230;28;20123;-76
2023/04/03 08:30:09;;;;;;;2.67;0.50;;;8.30;71.80;;;;;;5094989;28;20028;-77
2023/04/03 08:32:35;;;;;;;2.00;0.30;;;8.50;71.10;;;;;;5077015;28;20028;-77
2023/04/03 08:35:02;;;;;;;4.28;0.82;;;8.60;69.70;;;;;;5094385;28;20028;-76
2023/04/03 08:37:27;;;;;;;1.75;0.50;;;8.80;68.00;;;;;;5076291;28;20050;-77
2023/04/03 08:39:54;;;;;;;4.22;0.43;;;8.90;67.70;;;;;;5076055;28;20059;-76
2023/04/03 08:42:52;;;;;;;2.67;0.60;;;9.00;68.00;;;;;;5075934;28;20043;-77
2023/04/03 08:45:34;;;;;;;4.80;0.70;;;9.00;68.30;;;;;;5094745;28;20032;-76
2023/04/03 08:48:23;;;;;;;2.00;0.30;;;9.10;65.40;;;;;;5094419;28;20028;-76
2023/04/03 08:50:54;;;;;;;2.85;0.55;;;9.20;65.30;;;;;;5094576;28;20024;-76
2023/04/03 08:53:28;;;;;;;1.77;0.30;;;9.30;65.60;;;;;;5094014;28;20020;-77
2023/04/03 08:55:55;;;;;;;1.58;0.30;;;9.40;63.30;;;;;;5093758;28;20536;-76
2023/04/03 08:58:41;;;;;;;4.10;0.40;;;9.40;61.10;;;;;;5094945;28;20024;-77
2023/04/03 09:01:35;;;;;;;1.77;0.20;;;9.50;61.70;;;;;;5094265;28;20025;-77
2023/04/03 09:04:01;;;;;;;;;;;9.80;62.50;;;;;;5072534;28;20032;-78
2023/04/03 09:06:32;;;;;;;2.63;0.22;;;9.90;59.60;;;;;;5093639;28;19915;-76
2023/04/03 09:09:43;;;;;;;1.15;0.15;;;9.90;55.10;;;;;;5075859;28;20439;-76
2023/04/03 09:12:26;;;;;;;1.92;0.28;;;9.90;56.10;;;;;;5071745;28;20043;-76
2023/04/03 09:15:24;;;;;;;2.35;0.20;;;10.00;55.10;;;;;;5075580;28;20028;-76
2023/04/03 09:18:05;;;;;;;1.90;0.20;;;10.10;55.40;;;;;;5076133;28;20036;-74
2023/04/03 09:20:53;;;;;;;2.17;0.20;;;10.30;55.30;;;;;;5094053;28;20469;-77
2023/04/03 09:23:28;;;;;;;1.20;0.10;;;10.40;52.90;;;;;;5093674;28;20036;-77
2023/04/03 09:26:14;;;;;;;2.28;0.30;;;10.40;51.50;;;;;;5075857;28;20028;-76
2023/04/03 09:28:42;;;;;;;3.38;0.70;;;10.40;50.00;;;;;;5093751;28;20024;-76
2023/04/03 09:31:26;;;;;;;2.05;0.30;;;10.50;50.00;;;;;;5093416;28;20024;-76
2023/04/03 09:34:03;;;;;;;1.83;0.20;;;10.60;48.80;;;;;;5093563;28;20110;-77
2023/04/03 09:36:46;;;;;;;1.15;0.20;;;10.60;48.20;;;;;;5075425;28;20119;-77
2023/04/03 09:39:19;;;;;;;0.80;0.10;;;10.60;48.10;;;;;;5092927;28;20044;-75
2023/04/03 09:42:19;;;;;;;2.65;0.10;;;10.70;49.60;;;;;;5093172;28;20028;-77
2023/04/03 09:45:03;;;;;;;3.15;0.30;;;10.80;50.20;;;;;;5096288;28;20033;-76
2023/04/03 09:47:37;;;;;;;1.23;0.10;;;10.90;47.80;;;;;;5097075;28;20028;-77
2023/04/03 09:50:12;;;;;;;3.88;0.10;;;11.00;47.70;;;;;;5078734;28;20035;-77
2023/04/03 09:52:40;;;;;;;1.65;0.10;;;11.00;45.90;;;;;;5097112;28;20043;-77
2023/04/03 09:55:17;;;;;;;1.35;0.20;;;10.90;46.00;;;;;;5096944;28;20024;-79
2023/04/03 09:57:44;;;;;;;1.48;0.15;;;10.90;45.60;;;;;;5080854;28;20104;-77
2023/04/03 10:00:22;;;;;;;1.10;0.40;;;10.90;45.70;;;;;;5096965;28;20429;-77
2023/04/03 10:02:52;;;;;;;2.13;0.25;;;11.00;46.00;;;;;;5079059;28;20024;-75
2023/04/03 10:05:39;;;;;;;1.08;0.10;;;11.10;46.30;;;;;;5078529;28;20131;-78
2023/04/03 10:08:14;;;;;;;1.38;0.20;;;11.20;44.50;;;;;;5096740;28;20035;-77
2023/04/03 10:10:42;;;;;;;1.85;0.40;;;11.40;43.90;;;;;;5096608;28;20028;-78
2023/04/03 10:13:26;;;;;;;1.45;0.20;;;11.40;44.90;;;;;;5079144;28;20384;-75
2023/04/03 10:16:00;;;;;;;1.65;0.28;;;11.40;45.00;;;;;;5096744;28;20036;-76
2023/04/03 10:18:46;;;;;;;1.65;0.20;;;11.40;45.80;;;;;;5096810;28;20138;-78
2023/04/03 10:21:35;;;;;;;1.42;0.20;;;11.30;46.30;;;;;;5096537;28;20126;-76
2023/04/03 10:24:14;;;;;;;1.27;0.40;;;11.30;46.60;;;;;;5078029;28;20440;-76
2023/04/03 10:26:56;;;;;;;1.35;0.32;;;11.40;45.40;;;;;;5096219;28;20468;-74
2023/04/03 10:29:41;;;;;;;1.70;0.22;;;11.50;46.80;;;;;;5078296;28;20456;-75
2023/04/03 10:32:23;;;;;;;1.73;0.20;;;11.60;47.60;;;;;;5096410;28;20111;-79
2023/04/03 10:35:00;;;;;;;1.13;0.25;;;11.70;45.80;;;;;;5078480;28;20115;-77
2023/04/03 10:37:36;;;;;;;1.30;0.25;;;11.90;46.70;;;;;;5079298;28;20040;-79
2023/04/03 10:40:39;;;;;;;2.55;0.45;;;11.90;46.50;;;;;;5097570;28;20561;-79
2023/04/03 10:43:28;;;;;;;2.40;0.30;;;12.00;47.60;;;;;;5096517;28;20028;-79
2023/04/03 10:46:06;;;;;;;1.20;0.30;;;12.20;46.20;;;;;;5078034;28;20040;-77
2023/04/03 10:48:56;;;;;;;1.77;0.30;;;12.40;47.70;;;;;;5095830;28;20452;-78
2023/04/03 10:51:57;;;;;;;2.00;0.40;;;12.30;47.10;;;;;;5077883;28;20110;-76
2023/04/03 10:54:54;;;;;;;2.20;0.25;;;12.20;44.90;;;;;;5059804;28;20174;-77
2023/04/03 10:57:23;;;;;;;1.30;0.28;;;12.20;46.00;;;;;;5040144;28;20070;-77
2023/04/03 10:59:52;;;;;;;0.80;0.15;;;12.20;46.80;;;;;;5095751;28;20031;-79
2023/04/03 11:02:38;;;;;;;3.85;0.55;;;12.20;48.40;;;;;;5077578;28;20027;-77
2023/04/03 11:05:18;;;;;;;1.83;0.30;;;12.40;47.80;;;;;;5095920;28;20482;-77
2023/04/03 11:07:48;;;;;;;1.15;0.13;;;12.30;47.90;;;;;;5078098;28;20032;-76
2023/04/03 11:10:35;;;;;;;2.35;0.30;;;12.40;47.00;;;;;;5077989;28;20457;-81
2023/04/03 11:13:13;;;;;;;1.77;0.20;;;12.40;45.30;;;;;;5077696;28;20093;-77
2023/04/03 11:15:39;;;;;;;2.63;0.63;;;12.60;46.10;;;;;;5076938;28;20128;-77
2023/04/03 11:18:25;;;;;;;1.08;0.30;;;12.60;44.90;;;;;;5077115;28;20032;-78
2023/04/03 11:21:03;;;;;;;3.30;0.30;;;12.80;44.90;;;;;;5077946;28;20351;-76
2023/04/03 11:23:36;;;;;;;2.35;0.40;;;12.90;42.60;;;;;;5095457;28;20020;-77
2023/04/03 11:26:11;;;;;;;2.97;0.30;;;12.80;44.10;;;;;;5095260;28;20103;-77
2023/04/03 11:28:38;;;;;;;1.65;0.55;;;12.60;42.90;;;;;;5095280;28;20020;-76
2023/04/03 11:31:19;;;;;;;4.03;0.68;;;12.40;43.40;;;;;;5076876;28;20460;-76
2023/04/03 11:33:55;;;;;;;1.17;0.22;;;12.50;44.30;;;;;;5077535;28;20368;-76
2023/04/03 11:36:26;;;;;;;2.42;0.40;;;12.60;43.70;;;;;;5095173;28;20468;-76
2023/04/03 11:38:58;;;;;;;2.97;0.20;;;12.80;45.30;;;;;;5095062;28;20044;-76
2023/04/03 11:41:31;;;;;;;1.83;0.30;;;13.00;44.30;;;;;;5095424;28;20069;-77
2023/04/03 11:44:32;;;;;;;3.03;0.30;;;13.00;44.40;;;;;;5094777;28;20054;-76
2023/04/03 11:47:00;;;;;;;1.35;0.20;;;12.90;43.40;;;;;;5094937;28;20036;-76
2023/04/03 11:49:52;;;;;;;2.30;0.30;;;12.90;43.90;;;;;;5076629;28;20375;-76
2023/04/03 11:52:45;;;;;;;1.52;0.20;;;13.00;44.10;;;;;;5094494;28;20077;-79
2023/04/03 11:55:20;;;;;;;1.30;0.20;;;13.00;44.80;;;;;;5046672;28;20029;-80
2023/04/03 11:57:46;;;;;;;1.75;0.20;;;13.00;43.70;;;;;;5094482;28;20100;-79
2023/04/03 12:00:43;;;;;;;1.48;0.28;;;13.00;44.90;;;;;;5076176;28;20491;-77
2023/04/03 12:03:27;;;;;;;1.60;0.20;;;13.00;44.80;;;;;;5076316;28;20035;-77
2023/04/03 12:06:09;;;;;;;2.22;0.38;;;13.10;44.80;;;;;;5093629;28;20032;-78
2023/04/03 12:08:47;;;;;;;2.35;0.30;;;13.30;45.80;;;;;;5076095;28;20024;-77
2023/04/03 12:11:12;;;;;;;2.05;0.30;;;13.40;43.50;;;;;;5076954;28;20044;-78
2023/04/03 12:13:49;;;;;;;1.90;0.20;;;13.50;43.40;;;;;;5076634;28;20350;-78
2023/04/03 12:16:28;;;;;;;1.45;0.40;;;13.50;44.10;;;;;;5076708;28;20047;-78
2023/04/03 12:18:58;;;;;;;0.75;0.20;;;13.60;44.20;;;;;;5094583;28;20039;-77
2023/04/03 12:21:36;;;;;;;2.08;0.35;;;13.60;43.30;;;;;;5094650;28;20027;-78
2023/04/03 12:24:07;;;;;;;2.88;0.28;;;13.80;45.40;;;;;;5094505;28;20032;-78
2023/04/03 12:26:51;;;;;;;1.88;0.35;;;13.80;46.50;;;;;;5076161;28;20032;-77
2023/04/03 12:29:24;;;;;;;1.13;0.20;;;13.70;45.70;;;;;;5094111;28;20048;-77
2023/04/03 12:32:06;;;;;;;1.42;0.25;;;13.70;46.60;;;;;;5094241;28;20028;-77
2023/04/03 12:35:09;;;;;;;2.05;0.30;;;13.80;46.40;;;;;;5093945;28;20020;-77
2023/04/03 12:38:03;;;;;;;2.40;0.20;;;13.70;45.20;;;;;;5075764;28;20046;-78
2023/04/03 12:40:47;;;;;;;2.13;0.22;;;13.70;43.20;;;;;;5094448;28;20509;-78
2023/04/03 12:43:31;;;;;;;2.10;0.40;;;13.70;43.70;;;;;;5076048;28;20464;-77
2023/04/03 12:46:04;;;;;;;1.83;0.40;;;13.70;44.10;;;;;;5075488;28;20031;-79
2023/04/03 12:48:33;;;;;;;2.47;0.20;;;13.60;44.10;;;;;;5075317;28;20024;-79
2023/04/03 12:51:00;;;;;;;2.15;0.30;;;13.60;44.10;;;;;;5094112;28;20114;-77
2023/04/03 12:53:34;;;;;;;2.30;0.30;;;13.70;43.80;;;;;;5075413;28;20028;-78
2023/04/03 12:56:20;;;;;;;0.90;0.13;;;13.60;43.30;;;;;;5093891;28;20035;-80
2023/04/03 12:58:46;;;;;;;3.00;0.30;;;13.40;45.50;;;;;;5075534;28;20548;-81
2023/04/03 13:01:18;;;;;;;2.63;0.20;;;13.40;44.20;;;;;;5093552;28;20036;-77
2023/04/03 13:03:47;;;;;;;3.83;0.35;;;13.50;44.00;;;;;;5075968;28;20372;-76
2023/04/03 13:06:23;;;;;;;2.13;0.25;;;13.50;43.80;;;;;;5075425;28;20123;-77
2023/04/03 13:08:53;;;;;;;2.90;0.38;;;13.60;43.90;;;;;;5093757;28;20024;-77
2023/04/03 13:11:21;;;;;;;3.13;0.40;;;13.70;44.70;;;;;;5093507;28;20016;-78
2023/04/03 13:14:16;;;;;;;3.47;0.43;;;13.70;44.50;;;;;;5075530;28;20088;-77